Time;durP1;ratioP1;P1;durP2;ratioP2;P2;SDS_P1;SDS_P2;PMS_P1;PMS_P2;Temp;Humidity;BMP_temperature;BMP_pressure;BME280_temperature;BME280_humidity;BME280_pressure;Samples;Min_cycle;Max_cycle;Signal;HPM_P1;HPM_P2
2022/12/22 03:27:03;;;;;;;96.43;43.83;;;8.80;94.90;;;;;;5023747;28;20505;-90
2022/12/22 03:29:28;;;;;;;97.97;43.47;;;8.70;94.90;;;;;;5040462;28;20400;-90
2022/12/22 03:31:54;;;;;;;109.50;44.17;;;8.70;94.90;;;;;;5023787;28;20407;-90
2022/12/22 03:34:20;;;;;;;121.73;45.87;;;8.60;94.80;;;;;;5023608;28;20912;-91
2022/12/22 03:36:45;;;;;;;105.93;43.23;;;8.60;94.80;;;;;;5023072;28;20954;-92
2022/12/22 03:39:11;;;;;;;387.85;48.90;;;8.50;94.70;;;;;;5023843;28;20470;-90
2022/12/22 03:47:05;;;;;;;127.35;44.10;;;8.20;94.40;;;;;;5028191;28;20817;-90
2022/12/22 03:49:31;;;;;;;144.33;46.53;;;8.10;94.60;;;;;;5026841;28;20431;-89
2022/12/22 03:51:56;;;;;;;136.40;48.30;;;8.10;94.90;;;;;;5027344;28;20473;-92
2022/12/22 03:54:24;;;;;;;169.32;50.15;;;8.10;95.30;;;;;;5026907;28;20399;-91
2022/12/22 03:56:51;;;;;;;177.20;50.17;;;8.10;95.50;;;;;;5026883;28;20438;-90
2022/12/22 03:59:17;;;;;;;176.23;50.30;;;8.20;95.60;;;;;;5026903;28;20458;-90
2022/12/22 04:01:46;;;;;;;231.05;52.67;;;8.20;95.70;;;;;;5026491;28;20439;-91
2022/12/22 04:04:13;;;;;;;271.70;53.93;;;8.20;95.60;;;;;;5027664;28;20446;-89
2022/12/22 04:06:39;;;;;;;256.90;53.27;;;8.20;95.60;;;;;;5026789;28;20774;-90
2022/12/22 04:09:05;;;;;;;245.95;52.70;;;8.20;95.60;;;;;;5043475;28;20493;-90
2022/12/22 04:14:15;;;;;;;207.65;49.92;;;8.20;95.60;;;;;;5026291;28;20443;-90
2022/12/22 04:16:40;;;;;;;175.20;48.13;;;8.20;95.60;;;;;;5026261;28;20473;-90
2022/12/22 04:19:07;;;;;;;236.32;51.72;;;8.50;95.60;;;;;;5026644;28;20437;-91
2022/12/22 04:21:33;;;;;;;221.48;51.03;;;8.30;95.50;;;;;;5027149;28;21013;-90
2022/12/22 04:23:59;;;;;;;214.90;50.38;;;8.30;95.50;;;;;;5026057;28;20486;-91
2022/12/22 04:26:25;;;;;;;252.00;50.13;;;8.30;95.40;;;;;;5026957;28;20410;-90
2022/12/22 04:28:52;;;;;;;171.63;46.57;;;8.30;95.40;;;;;;5026628;28;20419;-90
2022/12/22 04:31:18;;;;;;;223.15;51.60;;;8.50;95.40;;;;;;5026240;28;20513;-90
2022/12/22 04:33:44;;;;;;;260.25;52.92;;;8.50;95.50;;;;;;5026170;28;20407;-90
2022/12/22 04:36:10;;;;;;;227.35;51.47;;;8.30;95.40;;;;;;5042411;28;20422;-89
2022/12/22 04:38:37;;;;;;;327.17;47.97;;;8.40;95.30;;;;;;5025959;28;20435;-90
2022/12/22 04:41:03;;;;;;;166.50;42.83;;;8.60;95.00;;;;;;5025780;28;20403;-90
2022/12/22 04:43:29;;;;;;;152.65;41.28;;;8.10;94.80;;;;;;5026773;28;20775;-90
2022/12/22 04:45:55;;;;;;;190.33;45.30;;;8.00;94.70;;;;;;5026415;28;20422;-90
2022/12/22 04:48:22;;;;;;;341.88;44.67;;;8.00;94.90;;;;;;5025978;28;20797;-90
2022/12/22 04:50:53;;;;;;;255.75;44.33;;;7.90;94.70;;;;;;5024664;28;20473;-89
2022/12/22 04:53:20;;;;;;;183.23;38.70;;;7.80;94.70;;;;;;5042549;28;20451;-90
2022/12/22 04:55:47;;;;;;;630.47;50.20;;;7.80;94.70;;;;;;5025572;28;20443;-89
2022/12/22 04:58:13;;;;;;;378.50;41.25;;;7.70;94.90;;;;;;5025541;28;20434;-91
2022/12/22 05:00:39;;;;;;;318.35;41.28;;;7.70;95.00;;;;;;5026340;28;20611;-89
2022/12/22 05:03:05;;;;;;;169.00;38.55;;;7.70;95.00;;;;;;5025471;28;20427;-89
2022/12/22 05:05:31;;;;;;;156.73;36.60;;;7.70;95.40;;;;;;5025533;28;20421;-90
2022/12/22 05:07:56;;;;;;;168.23;39.83;;;7.70;95.20;;;;;;5025999;28;20516;-89
2022/12/22 05:10:22;;;;;;;144.40;36.70;;;7.70;95.10;;;;;;5025110;28;20536;-90
2022/12/22 05:12:53;;;;;;;154.97;39.33;;;7.80;95.10;;;;;;5025492;28;21070;-90
2022/12/22 05:15:20;;;;;;;212.30;44.13;;;7.70;95.10;;;;;;5025320;28;20411;-90
2022/12/22 05:17:46;;;;;;;176.57;40.22;;;7.70;95.20;;;;;;5025955;28;20477;-90
2022/12/22 05:20:12;;;;;;;158.50;39.83;;;7.90;95.20;;;;;;5041818;28;20431;-90
2022/12/22 05:22:37;;;;;;;160.13;43.63;;;7.70;95.10;;;;;;5025622;28;20415;-90
2022/12/22 05:25:03;;;;;;;150.55;39.95;;;7.70;95.20;;;;;;5041867;28;20406;-91
2022/12/22 05:27:29;;;;;;;143.25;38.95;;;7.70;95.20;;;;;;5025211;28;20419;-89
2022/12/22 05:29:55;;;;;;;124.47;40.47;;;7.70;95.30;;;;;;5021837;28;20419;-91
2022/12/22 05:32:20;;;;;;;143.05;39.60;;;7.90;95.30;;;;;;5005081;28;20412;-92
2022/12/22 05:34:46;;;;;;;149.27;45.23;;;7.60;95.30;;;;;;5021976;28;20404;-89
2022/12/22 05:37:12;;;;;;;138.57;43.77;;;7.60;95.30;;;;;;5021320;28;20975;-90
2022/12/22 05:39:37;;;;;;;131.77;41.80;;;7.70;95.40;;;;;;5022062;28;20417;-90
2022/12/22 05:42:03;;;;;;;148.10;41.50;;;7.70;95.30;;;;;;5021601;28;20408;-90
2022/12/22 05:44:29;;;;;;;191.95;46.08;;;7.60;95.10;;;;;;5021997;28;20420;-90
2022/12/22 05:46:54;;;;;;;209.93;45.65;;;7.50;95.40;;;;;;5021962;28;20424;-90
2022/12/22 05:49:20;;;;;;;160.80;45.53;;;7.50;95.60;;;;;;5021717;28;20405;-90
2022/12/22 05:51:46;;;;;;;216.53;50.73;;;7.50;96.00;;;;;;5021789;28;20417;-90
2022/12/22 05:54:12;;;;;;;201.27;46.60;;;7.50;95.90;;;;;;5003657;28;20435;-91
2022/12/22 05:56:38;;;;;;;255.83;50.33;;;7.60;96.00;;;;;;4988591;28;20420;-90
2022/12/22 05:59:03;;;;;;;295.47;55.10;;;7.60;96.10;;;;;;4978029;28;20446;-92
2022/12/22 06:01:29;;;;;;;267.90;52.53;;;7.60;96.20;;;;;;4994913;28;20434;-90
2022/12/22 06:03:55;;;;;;;233.63;49.77;;;7.80;96.30;;;;;;4969368;28;20513;-92
2022/12/22 06:06:20;;;;;;;253.63;49.97;;;7.70;96.20;;;;;;4969409;28;20510;-91
2022/12/22 06:08:46;;;;;;;265.08;49.35;;;7.70;96.30;;;;;;4968978;28;20438;-91
2022/12/22 06:11:16;;;;;;;212.02;44.33;;;7.90;96.20;;;;;;4971618;28;20494;-91
2022/12/22 06:13:43;;;;;;;269.95;47.55;;;7.80;96.10;;;;;;5001558;28;20483;-90
2022/12/22 06:16:09;;;;;;;430.58;51.83;;;8.00;96.20;;;;;;4980857;28;20407;-91
2022/12/22 06:18:34;;;;;;;559.85;54.75;;;8.00;96.10;;;;;;4977049;28;20465;-91
2022/12/22 06:21:00;;;;;;;215.13;43.43;;;7.80;96.10;;;;;;4978917;28;20508;-91
2022/12/22 06:23:26;;;;;;;230.83;43.90;;;7.80;96.00;;;;;;4988424;28;20886;-92
2022/12/22 06:25:57;;;;;;;262.65;42.47;;;7.90;96.00;;;;;;4992845;28;20500;-92
2022/12/22 06:28:23;;;;;;;117.72;31.20;;;8.00;95.90;;;;;;4993114;28;20739;-92
2022/12/22 06:30:49;;;;;;;137.23;31.95;;;7.90;95.70;;;;;;5027756;28;20416;-92
2022/12/22 06:33:15;;;;;;;174.23;33.97;;;7.80;95.60;;;;;;4995584;28;20498;-91
2022/12/22 06:35:40;;;;;;;122.88;29.02;;;8.10;95.70;;;;;;4979035;28;20451;-90
2022/12/22 06:38:06;;;;;;;135.30;30.15;;;7.80;95.60;;;;;;4979145;28;20470;-91
2022/12/22 06:40:32;;;;;;;139.37;30.03;;;7.90;95.60;;;;;;4994878;28;20939;-91
2022/12/22 06:43:09;;;;;;;187.60;31.40;;;8.00;95.60;;;;;;4995289;28;20763;-91
2022/12/22 06:45:40;;;;;;;120.00;28.38;;;7.70;95.50;;;;;;4995545;28;20412;-92
2022/12/22 06:48:07;;;;;;;243.20;32.90;;;7.60;95.50;;;;;;4979038;28;20922;-91
2022/12/22 06:50:33;;;;;;;130.05;27.77;;;7.70;95.60;;;;;;4994892;28;20947;-92
2022/12/22 06:52:59;;;;;;;109.10;26.77;;;7.80;95.60;;;;;;4979247;28;20426;-91
2022/12/22 06:55:25;;;;;;;125.97;26.92;;;7.70;95.50;;;;;;5025725;28;20410;-91
2022/12/22 06:57:50;;;;;;;153.27;29.80;;;7.60;95.50;;;;;;5027914;28;20447;-92
2022/12/22 07:00:16;;;;;;;116.20;27.17;;;7.80;95.50;;;;;;4978939;28;20439;-91
2022/12/22 07:02:42;;;;;;;143.73;28.60;;;7.60;95.50;;;;;;4978924;28;20507;-90
2022/12/22 07:05:08;;;;;;;116.83;26.70;;;7.70;95.60;;;;;;4977434;28;20473;-93
2022/12/22 07:07:34;;;;;;;119.40;27.15;;;7.60;95.50;;;;;;4995573;28;20419;-90
2022/12/22 07:10:00;;;;;;;118.97;26.38;;;7.50;95.50;;;;;;5026832;28;20409;-91
2022/12/22 07:12:26;;;;;;;94.03;24.33;;;7.50;95.40;;;;;;5027070;28;20824;-91
2022/12/22 07:14:52;;;;;;;155.73;26.60;;;7.80;95.40;;;;;;5011587;28;20410;-90
2022/12/22 07:17:17;;;;;;;96.37;24.23;;;7.60;95.30;;;;;;4999091;28;20612;-90
2022/12/22 07:19:43;;;;;;;112.22;24.13;;;7.50;95.30;;;;;;4980317;28;20416;-91
2022/12/22 07:22:09;;;;;;;109.50;23.15;;;7.50;95.30;;;;;;4982377;28;20400;-91
2022/12/22 07:24:35;;;;;;;77.80;21.00;;;7.50;95.20;;;;;;4998374;28;20415;-91
2022/12/22 07:27:01;;;;;;;85.47;20.38;;;7.50;95.30;;;;;;4998404;28;20416;-92
2022/12/22 07:29:26;;;;;;;90.67;19.87;;;7.40;95.20;;;;;;4979963;28;20425;-90
2022/12/22 07:31:52;;;;;;;90.10;20.13;;;7.50;95.20;;;;;;4982774;28;20483;-92
2022/12/22 07:34:18;;;;;;;106.28;23.35;;;7.40;95.20;;;;;;4979357;28;20410;-91
2022/12/22 07:36:43;;;;;;;112.63;21.23;;;7.40;95.40;;;;;;5015083;28;20416;-90
2022/12/22 07:39:11;;;;;;;115.90;19.53;;;7.40;95.30;;;;;;4980964;28;20492;-90
2022/12/22 07:44:22;;;;;;;83.25;18.65;;;7.40;95.00;;;;;;5007895;28;20413;-90
2022/12/22 07:46:48;;;;;;;86.95;18.63;;;7.40;95.10;;;;;;5007884;28;20447;-91
2022/12/22 07:51:58;;;;;;;181.95;24.38;;;7.20;95.00;;;;;;5007274;28;20413;-91
2022/12/22 07:54:26;;;;;;;179.00;23.58;;;7.40;95.20;;;;;;5007256;28;20413;-91
2022/12/22 07:56:52;;;;;;;101.47;19.00;;;7.10;95.10;;;;;;5007073;28;20442;-92
2022/12/22 07:59:18;;;;;;;77.57;18.48;;;7.10;95.00;;;;;;4977035;28;20501;-91
2022/12/22 08:01:44;;;;;;;121.32;18.90;;;7.10;95.00;;;;;;4990347;28;20401;-91
2022/12/22 08:04:11;;;;;;;86.55;16.73;;;7.00;94.70;;;;;;5039579;28;20760;-92
2022/12/22 08:06:37;;;;;;;85.63;16.10;;;6.90;94.80;;;;;;5040920;28;20879;-93
2022/12/22 08:09:04;;;;;;;77.07;13.50;;;6.90;94.90;;;;;;5005950;28;20472;-92
2022/12/22 08:11:30;;;;;;;66.60;14.55;;;6.90;94.90;;;;;;4981919;28;20563;-92
2022/12/22 08:13:56;;;;;;;54.35;13.40;;;6.90;94.80;;;;;;5031339;28;21057;-93
2022/12/22 08:16:21;;;;;;;62.50;13.52;;;6.90;95.00;;;;;;5002554;28;20492;-89
2022/12/22 08:18:51;;;;;;;60.55;13.82;;;6.80;94.90;;;;;;5006812;28;20498;-91
2022/12/22 08:21:17;;;;;;;72.47;13.23;;;6.70;95.00;;;;;;5006988;28;20416;-89
2022/12/22 08:23:43;;;;;;;69.87;12.17;;;6.70;94.80;;;;;;5039891;28;20405;-92
2022/12/22 08:26:16;;;;;;;66.43;12.60;;;6.70;94.70;;;;;;5006285;28;20408;-90
2022/12/22 08:28:57;;;;;;;66.40;11.48;;;6.70;94.60;;;;;;5007375;28;20432;-92
2022/12/22 08:31:25;;;;;;;60.50;9.68;;;6.70;94.70;;;;;;5040378;28;20817;-91
2022/12/22 08:33:52;;;;;;;56.47;10.90;;;6.60;94.20;;;;;;5039504;28;20405;-91
2022/12/22 08:36:18;;;;;;;53.53;9.73;;;6.50;94.50;;;;;;5006449;28;20773;-90
2022/12/22 08:38:44;;;;;;;57.10;11.20;;;6.50;94.60;;;;;;5006393;28;20432;-91
2022/12/22 08:41:13;;;;;;;51.65;9.80;;;6.50;95.10;;;;;;5039620;28;20415;-90
2022/12/22 08:43:38;;;;;;;48.40;11.53;;;6.50;95.00;;;;;;5039642;28;20411;-89
2022/12/22 08:46:04;;;;;;;71.03;11.30;;;6.50;94.80;;;;;;5039653;28;20416;-91
2022/12/22 08:48:30;;;;;;;55.88;11.38;;;6.50;94.80;;;;;;5022890;28;20472;-92
2022/12/22 08:50:55;;;;;;;52.08;9.20;;;6.40;94.80;;;;;;5005865;28;20463;-91
2022/12/22 08:53:21;;;;;;;45.90;9.93;;;6.40;95.00;;;;;;5006311;28;20413;-91
2022/12/22 08:55:54;;;;;;;46.97;8.73;;;6.40;95.00;;;;;;5039449;28;20537;-93
2022/12/22 08:58:20;;;;;;;49.83;11.55;;;6.40;95.00;;;;;;5039671;28;20421;-93
2022/12/22 09:00:46;;;;;;;50.17;10.90;;;6.40;95.20;;;;;;5022564;28;20855;-92
2022/12/22 09:03:12;;;;;;;43.33;12.10;;;6.40;95.00;;;;;;5006136;28;20571;-91
2022/12/22 09:05:38;;;;;;;51.63;11.03;;;6.20;95.20;;;;;;5005997;28;20507;-92
2022/12/22 09:08:04;;;;;;;37.80;11.50;;;6.30;95.20;;;;;;5039755;28;20447;-91
2022/12/22 09:10:30;;;;;;;60.08;10.25;;;6.30;95.20;;;;;;5039347;28;20415;-92
2022/12/22 09:12:57;;;;;;;60.78;11.82;;;6.30;95.40;;;;;;5039248;28;20409;-92
2022/12/22 09:15:22;;;;;;;79.40;12.43;;;6.40;95.40;;;;;;5036594;28;20792;-91
2022/12/22 09:17:48;;;;;;;85.10;11.80;;;6.40;95.40;;;;;;4998029;28;20437;-91
2022/12/22 09:20:14;;;;;;;75.00;13.35;;;6.40;95.40;;;;;;4977854;28;20425;-92
2022/12/22 09:22:40;;;;;;;51.33;11.13;;;6.40;95.40;;;;;;5026924;28;20442;-92
2022/12/22 09:25:06;;;;;;;35.93;12.30;;;6.40;95.40;;;;;;4994507;28;20910;-91
2022/12/22 09:27:31;;;;;;;29.17;12.52;;;6.50;95.60;;;;;;4978697;28;20406;-93
2022/12/22 09:29:57;;;;;;;36.80;11.60;;;6.50;95.60;;;;;;4980470;28;20411;-92
2022/12/22 09:32:23;;;;;;;26.87;10.33;;;6.60;95.80;;;;;;5032900;28;20908;-91
2022/12/22 09:34:48;;;;;;;25.25;12.10;;;6.70;95.50;;;;;;5012012;28;20420;-93
2022/12/22 09:37:15;;;;;;;23.30;10.70;;;6.70;95.60;;;;;;4978757;28;20521;-91
2022/12/22 09:39:41;;;;;;;25.57;9.87;;;6.80;95.50;;;;;;5026020;28;20491;-91
2022/12/22 09:42:13;;;;;;;16.13;8.83;;;6.80;95.20;;;;;;4980896;28;20853;-92
2022/12/22 09:44:43;;;;;;;18.63;9.70;;;6.90;95.30;;;;;;4979906;28;20408;-91
2022/12/22 09:47:29;;;;;;;17.15;7.60;;;7.00;95.20;;;;;;4995522;28;20857;-91
2022/12/22 09:49:56;;;;;;;20.88;7.80;;;7.00;94.90;;;;;;4998559;28;20417;-92
2022/12/22 09:52:43;;;;;;;17.15;8.13;;;7.10;94.80;;;;;;5035220;28;20496;-92
2022/12/22 09:55:25;;;;;;;23.47;9.90;;;7.20;94.90;;;;;;5021982;28;20827;-90
2022/12/22 09:57:54;;;;;;;16.80;8.37;;;7.20;95.00;;;;;;5037622;28;20456;-90
2022/12/22 10:00:24;;;;;;;21.40;9.05;;;7.20;94.80;;;;;;5037426;28;20420;-90
2022/12/22 10:03:31;;;;;;;19.02;8.85;;;7.20;94.90;;;;;;5004090;28;20491;-91
2022/12/22 10:06:21;;;;;;;21.42;10.15;;;7.30;95.00;;;;;;4990244;28;20507;-92
2022/12/22 10:08:48;;;;;;;17.67;9.00;;;7.40;95.20;;;;;;5004479;28;20447;-91
2022/12/22 10:11:17;;;;;;;17.98;8.80;;;7.60;95.10;;;;;;5004417;28;20421;-91
2022/12/22 10:13:44;;;;;;;15.00;8.35;;;7.70;94.80;;;;;;5005191;28;20672;-91
2022/12/22 10:16:25;;;;;;;11.32;6.25;;;7.80;94.80;;;;;;5005120;28;20433;-91
2022/12/22 10:19:08;;;;;;;13.07;6.32;;;8.00;94.80;;;;;;4998572;28;20433;-89
2022/12/22 10:21:33;;;;;;;12.90;6.10;;;8.20;94.60;;;;;;4978971;28;20422;-88
2022/12/22 10:23:59;;;;;;;8.17;4.87;;;8.40;94.30;;;;;;4976523;28;20417;-89
2022/12/22 10:26:31;;;;;;;10.60;5.87;;;8.50;93.70;;;;;;4989631;28;20963;-90
2022/12/22 10:28:59;;;;;;;9.93;5.85;;;8.60;93.60;;;;;;4969147;28;20442;-90
2022/12/22 10:31:27;;;;;;;12.70;5.85;;;8.60;93.30;;;;;;4984419;28;21308;-89
2022/12/22 10:33:55;;;;;;;12.80;6.00;;;8.60;93.00;;;;;;4968432;28;20433;-89
2022/12/22 10:36:25;;;;;;;11.30;6.18;;;8.50;92.90;;;;;;4968146;28;20406;-90
2022/12/22 10:39:09;;;;;;;11.23;6.10;;;8.60;93.20;;;;;;4968294;28;20434;-91
2022/12/22 10:41:39;;;;;;;10.57;6.15;;;8.40;93.40;;;;;;4984500;28;20418;-90
2022/12/22 10:44:09;;;;;;;14.00;6.05;;;8.40;93.50;;;;;;4968611;28;20460;-89
2022/12/22 10:46:51;;;;;;;11.20;5.82;;;8.50;93.40;;;;;;4984876;28;20426;-90
2022/12/22 10:49:38;;;;;;;10.88;5.10;;;8.60;93.50;;;;;;4970263;28;20422;-91
2022/12/22 10:52:16;;;;;;;10.32;5.10;;;8.70;93.10;;;;;;4972183;28;20581;-91
2022/12/22 10:54:44;;;;;;;10.77;4.82;;;9.00;93.10;;;;;;4972466;28;21163;-90
2022/12/22 10:57:12;;;;;;;12.00;5.10;;;9.30;92.70;;;;;;4972419;28;20449;-90
2022/12/22 11:00:29;;;;;;;9.10;4.70;;;9.50;92.30;;;;;;4989053;28;20761;-90
2022/12/22 11:02:58;;;;;;;8.10;4.20;;;9.80;91.80;;;;;;4935808;28;20428;-90
2022/12/22 11:05:24;;;;;;;8.35;3.97;;;9.90;91.40;;;;;;4984610;28;20739;-90
2022/12/22 11:07:50;;;;;;;8.05;4.20;;;10.00;90.50;;;;;;4988205;28;20411;-89
2022/12/22 11:10:30;;;;;;;8.75;4.35;;;9.90;90.40;;;;;;4987693;28;20414;-90
2022/12/22 11:13:10;;;;;;;9.27;4.10;;;9.90;90.40;;;;;;4989032;28;20505;-90
2022/12/22 11:16:05;;;;;;;10.45;4.20;;;9.80;90.00;;;;;;4988609;28;20410;-90
2022/12/22 11:19:01;;;;;;;9.43;3.95;;;9.60;90.00;;;;;;4987927;28;20434;-93
2022/12/22 11:21:51;;;;;;;9.80;4.50;;;9.60;90.20;;;;;;4988344;28;20417;-90
2022/12/22 11:24:31;;;;;;;9.90;4.45;;;9.50;91.10;;;;;;4987685;28;20473;-88
2022/12/22 11:27:06;;;;;;;10.63;4.80;;;9.50;91.30;;;;;;4987933;28;21467;-92
2022/12/22 11:29:58;;;;;;;10.75;4.13;;;9.50;90.90;;;;;;4988382;28;20456;-91
2022/12/22 11:32:32;;;;;;;12.27;4.38;;;9.40;90.90;;;;;;4987952;28;20430;-91
2022/12/22 11:35:29;;;;;;;10.20;4.47;;;9.30;91.10;;;;;;4988266;28;20556;-89
2022/12/22 11:38:08;;;;;;;10.77;3.95;;;9.20;91.40;;;;;;4987854;28;20521;-91
2022/12/22 11:40:41;;;;;;;9.40;3.58;;;9.20;91.40;;;;;;4971799;28;20715;-90
2022/12/22 11:43:29;;;;;;;9.43;3.63;;;9.20;91.70;;;;;;4988633;28;20475;-88
2022/12/22 11:46:02;;;;;;;11.93;3.58;;;9.30;91.50;;;;;;4987685;28;20905;-88
2022/12/22 11:48:30;;;;;;;9.02;3.17;;;9.40;91.40;;;;;;4989849;28;20489;-88
2022/12/22 11:51:07;;;;;;;11.98;3.58;;;9.60;91.40;;;;;;5026774;28;20413;-89
2022/12/22 11:53:54;;;;;;;12.57;3.65;;;9.70;91.10;;;;;;5001845;28;20702;-89
2022/12/22 11:56:28;;;;;;;11.25;3.55;;;9.80;91.00;;;;;;5040847;28;20502;-90
2022/12/22 11:59:14;;;;;;;11.73;3.45;;;9.90;90.70;;;;;;5006351;28;20838;-90
2022/12/22 12:01:49;;;;;;;11.20;3.50;;;10.00;90.50;;;;;;5038934;28;20894;-89
2022/12/22 12:04:36;;;;;;;14.07;3.28;;;10.20;90.80;;;;;;5039250;28;20420;-91
2022/12/22 12:07:41;;;;;;;9.90;3.00;;;10.40;90.30;;;;;;5039107;28;20413;-90
2022/12/22 12:10:35;;;;;;;12.75;3.13;;;10.50;90.00;;;;;;5022680;28;20499;-90
2022/12/22 12:13:21;;;;;;;12.25;3.10;;;10.50;88.80;;;;;;5038979;28;20417;-88
2022/12/22 12:15:52;;;;;;;11.52;3.20;;;10.50;88.60;;;;;;5038019;28;20878;-87
2022/12/22 12:18:56;;;;;;;11.15;3.60;;;10.50;89.70;;;;;;5021755;28;20769;-87
2022/12/22 12:21:48;;;;;;;10.38;3.40;;;10.60;89.00;;;;;;5022260;28;20493;-88
2022/12/22 12:24:14;;;;;;;9.70;3.42;;;10.70;88.20;;;;;;5022081;28;20417;-88
2022/12/22 12:26:48;;;;;;;9.15;3.72;;;10.60;88.00;;;;;;5028037;28;20420;-87
2022/12/22 12:29:26;;;;;;;14.10;4.78;;;10.50;88.50;;;;;;5004412;28;20413;-88
2022/12/22 12:32:16;;;;;;;10.45;4.47;;;10.30;88.50;;;;;;4988238;28;21026;-87
2022/12/22 12:34:45;;;;;;;11.13;4.60;;;10.10;89.30;;;;;;4988752;28;20495;-87
2022/12/22 12:37:20;;;;;;;11.40;4.57;;;9.90;89.40;;;;;;5003905;28;20799;-88
2022/12/22 12:39:56;;;;;;;11.40;4.70;;;9.70;90.20;;;;;;5005467;28;20824;-87
2022/12/22 12:42:39;;;;;;;12.15;5.13;;;9.50;90.40;;;;;;5004785;28;20444;-89
2022/12/22 12:45:32;;;;;;;9.73;5.03;;;9.40;90.70;;;;;;5004672;28;20448;-89
2022/12/22 12:48:20;;;;;;;11.23;5.20;;;9.30;91.00;;;;;;4982799;28;20844;-86
2022/12/22 12:50:46;;;;;;;10.95;5.13;;;9.20;91.30;;;;;;5004467;28;21179;-88
2022/12/22 12:53:12;;;;;;;10.63;5.13;;;9.30;91.60;;;;;;5004768;28;20503;-86
2022/12/22 12:55:38;;;;;;;13.17;5.17;;;9.50;91.30;;;;;;5004583;28;20405;-86
2022/12/22 12:58:08;;;;;;;11.63;5.40;;;9.50;91.10;;;;;;5003316;28;20796;-87
2022/12/22 13:00:34;;;;;;;11.18;5.25;;;9.60;91.10;;;;;;5004244;28;20405;-87
2022/12/22 13:03:11;;;;;;;11.47;5.20;;;9.60;91.30;;;;;;5003717;28;20428;-87
2022/12/22 13:05:53;;;;;;;12.48;5.70;;;9.60;90.90;;;;;;5004517;28;20421;-87
2022/12/22 13:08:22;;;;;;;14.17;5.80;;;9.50;91.20;;;;;;5004466;28;20409;-87
2022/12/22 13:10:51;;;;;;;15.95;5.72;;;9.50;91.10;;;;;;5003891;28;20413;-88
2022/12/22 13:13:23;;;;;;;13.15;5.80;;;9.40;91.40;;;;;;5002453;28;20448;-87
2022/12/22 13:16:11;;;;;;;11.50;5.07;;;9.40;92.00;;;;;;5003278;28;20412;-87
2022/12/22 13:18:42;;;;;;;13.03;5.27;;;9.30;91.90;;;;;;5004195;28;20527;-87
2022/12/22 13:21:26;;;;;;;13.87;5.40;;;9.30;91.80;;;;;;5003624;28;20474;-87
2022/12/22 13:23:54;;;;;;;14.88;6.38;;;9.30;91.90;;;;;;5003999;28;20808;-87
2022/12/22 13:26:26;;;;;;;11.77;5.32;;;9.20;92.00;;;;;;5020055;28;20428;-87
2022/12/22 13:29:01;;;;;;;15.17;5.57;;;9.20;92.30;;;;;;5019737;28;20484;-86
2022/12/22 13:31:43;;;;;;;13.00;5.35;;;9.20;92.50;;;;;;5002613;28;20428;-87
2022/12/22 13:34:37;;;;;;;12.93;5.38;;;9.20;92.30;;;;;;5119552;27;1930008;-84
2022/12/22 13:37:19;;;;;;;14.77;6.40;;;9.20;92.40;;;;;;5129445;27;20428;-85
2022/12/22 13:40:18;;;;;;;11.90;5.90;;;9.30;92.90;;;;;;5128315;27;20388;-86
2022/12/22 13:42:53;;;;;;;13.18;6.00;;;9.30;92.80;;;;;;5138664;27;20441;-84
2022/12/22 13:45:33;;;;;;;14.13;6.35;;;9.30;92.50;;;;;;5110783;27;20898;-87
2022/12/22 13:48:01;;;;;;;16.02;7.10;;;9.30;92.70;;;;;;5125249;27;20830;-86
2022/12/22 13:50:41;;;;;;;17.45;6.97;;;9.20;92.80;;;;;;5126507;27;20483;-84
2022/12/22 13:53:10;;;;;;;14.63;6.45;;;9.20;92.90;;;;;;5129078;27;20432;-86
2022/12/22 13:55:36;;;;;;;16.45;6.15;;;9.20;92.90;;;;;;5138205;27;20449;-85
2022/12/22 13:58:08;;;;;;;14.57;5.23;;;9.20;93.10;;;;;;5141979;27;20408;-88
2022/12/22 14:00:34;;;;;;;12.43;4.63;;;9.20;93.00;;;;;;5135380;27;20933;-88
2022/12/22 14:02:59;;;;;;;14.05;5.15;;;9.20;93.00;;;;;;5129943;27;20464;-88
2022/12/22 14:05:31;;;;;;;14.38;4.60;;;9.20;93.00;;;;;;5120123;27;20401;-88
2022/12/22 14:08:06;;;;;;;12.48;4.60;;;9.30;93.00;;;;;;5129998;27;20903;-88
2022/12/22 14:10:36;;;;;;;12.88;4.38;;;9.30;92.90;;;;;;5145358;27;20412;-87
2022/12/22 14:13:06;;;;;;;13.00;4.55;;;9.30;92.90;;;;;;5130236;27;20427;-90
2022/12/22 14:15:32;;;;;;;13.18;4.20;;;9.30;92.90;;;;;;5128485;27;20396;-89
2022/12/22 14:17:58;;;;;;;11.00;3.60;;;9.30;93.00;;;;;;5129949;27;20473;-88
2022/12/22 14:20:34;;;;;;;12.57;3.22;;;9.40;92.80;;;;;;5147399;27;20407;-88
2022/12/22 14:23:18;;;;;;;12.27;3.10;;;9.30;92.60;;;;;;5128305;27;20404;-87
2022/12/22 14:25:46;;;;;;;10.80;2.78;;;9.40;92.70;;;;;;5130268;27;20955;-89
2022/12/22 14:28:14;;;;;;;9.80;2.00;;;9.30;92.80;;;;;;5145527;27;20440;-88
2022/12/22 14:30:45;;;;;;;11.05;2.03;;;9.30;92.50;;;;;;5147236;27;20404;-87
2022/12/22 14:33:29;;;;;;;9.27;1.73;;;9.30;92.60;;;;;;5145914;27;20503;-87
2022/12/22 14:36:25;;;;;;;10.63;3.05;;;9.30;92.60;;;;;;5124172;27;20402;-87
2022/12/22 14:38:58;;;;;;;13.20;2.47;;;9.30;92.60;;;;;;5109460;27;20424;-88
2022/12/22 14:41:45;;;;;;;12.52;2.30;;;9.20;92.50;;;;;;5104389;27;20419;-87
2022/12/22 14:44:22;;;;;;;8.88;1.83;;;9.20;92.50;;;;;;5119304;27;20440;-88
2022/12/22 14:47:10;;;;;;;7.78;1.63;;;9.30;92.60;;;;;;5102315;27;20408;-87
2022/12/22 14:49:57;;;;;;;8.48;1.35;;;9.20;92.60;;;;;;5131115;27;20440;-87
2022/12/22 14:52:43;;;;;;;7.72;1.30;;;9.20;92.30;;;;;;5132386;27;20819;-88
2022/12/22 14:55:21;;;;;;;11.40;2.40;;;9.20;92.40;;;;;;5132560;27;20420;-87
2022/12/22 14:57:53;;;;;;;6.43;1.53;;;9.10;92.30;;;;;;5113711;27;20457;-87
2022/12/22 15:00:21;;;;;;;9.50;1.83;;;9.30;92.30;;;;;;5114476;27;20393;-87
2022/12/22 15:02:59;;;;;;;8.20;1.55;;;9.00;92.50;;;;;;5113323;27;20419;-87
2022/12/22 15:05:37;;;;;;;7.32;1.50;;;9.00;92.50;;;;;;5114922;27;20402;-87
2022/12/22 15:08:04;;;;;;;10.05;1.83;;;8.90;92.50;;;;;;5131846;27;20409;-86
2022/12/22 15:10:37;;;;;;;7.38;1.92;;;8.90;92.60;;;;;;5109668;27;20414;-87
2022/12/22 15:13:09;;;;;;;8.15;1.80;;;8.80;92.70;;;;;;5120450;27;20425;-88
2022/12/22 15:15:34;;;;;;;9.67;2.23;;;8.80;92.70;;;;;;5099223;27;20423;-88
2022/12/22 15:18:00;;;;;;;7.83;2.10;;;8.70;92.90;;;;;;5115998;27;20448;-87
2022/12/22 15:20:27;;;;;;;8.85;2.60;;;8.70;92.90;;;;;;5117827;27;20431;-87
2022/12/22 15:22:54;;;;;;;10.38;2.83;;;8.90;93.00;;;;;;5099709;27;20405;-87
2022/12/22 15:25:23;;;;;;;10.07;2.60;;;8.60;93.00;;;;;;5120165;27;20478;-88
2022/12/22 15:27:49;;;;;;;10.55;2.50;;;8.60;93.00;;;;;;5113212;27;20413;-88
2022/12/22 15:30:20;;;;;;;11.43;3.00;;;8.50;93.10;;;;;;5115374;27;20414;-88
2022/12/22 15:32:46;;;;;;;11.57;3.97;;;8.50;93.20;;;;;;5119431;27;20427;-87
2022/12/22 15:35:18;;;;;;;9.27;3.58;;;8.40;93.30;;;;;;5126763;27;20398;-88
2022/12/22 15:37:44;;;;;;;11.43;3.40;;;8.60;93.40;;;;;;5101202;27;20409;-87
2022/12/22 15:40:21;;;;;;;15.55;4.68;;;8.40;93.30;;;;;;5117203;27;20409;-89
2022/12/22 15:42:47;;;;;;;11.07;4.80;;;8.50;93.20;;;;;;5113271;27;20497;-87
2022/12/22 15:45:13;;;;;;;12.45;5.80;;;8.40;93.10;;;;;;5130432;27;20517;-87
2022/12/22 15:47:46;;;;;;;14.57;7.23;;;8.30;93.00;;;;;;5132128;27;20962;-88
2022/12/22 15:50:18;;;;;;;13.65;8.02;;;8.30;93.30;;;;;;5130344;27;20462;-86
2022/12/22 15:52:48;;;;;;;14.88;9.80;;;8.60;93.20;;;;;;5132258;27;20428;-87
2022/12/22 15:55:15;;;;;;;19.25;12.05;;;8.20;93.10;;;;;;5113179;27;20405;-85
2022/12/22 15:57:41;;;;;;;16.83;11.57;;;8.20;93.20;;;;;;5130779;27;20583;-88
2022/12/22 16:00:10;;;;;;;19.25;12.57;;;8.20;93.20;;;;;;5130760;27;20500;-88
2022/12/22 16:02:36;;;;;;;19.35;13.18;;;8.10;93.70;;;;;;5112811;27;20429;-86
2022/12/22 16:05:02;;;;;;;18.95;13.65;;;8.10;93.30;;;;;;5114330;27;20824;-87
2022/12/22 16:07:29;;;;;;;19.17;13.67;;;8.10;93.30;;;;;;5129481;27;20417;-89
2022/12/22 16:09:55;;;;;;;18.80;14.15;;;8.10;93.50;;;;;;5109156;27;20923;-88
2022/12/22 16:12:21;;;;;;;20.10;14.50;;;8.00;93.40;;;;;;5097012;27;20498;-88
2022/12/22 16:14:50;;;;;;;22.10;14.75;;;8.00;93.50;;;;;;5101394;27;20913;-88
2022/12/22 16:17:21;;;;;;;19.98;14.30;;;8.00;93.50;;;;;;5120578;27;20413;-87
2022/12/22 16:19:47;;;;;;;18.83;14.43;;;8.00;93.50;;;;;;5116389;27;20419;-88
2022/12/22 16:22:14;;;;;;;22.43;14.90;;;7.90;93.40;;;;;;5098087;27;20893;-86
2022/12/22 16:24:46;;;;;;;20.23;15.60;;;7.90;93.50;;;;;;5117960;27;20496;-87
2022/12/22 16:27:12;;;;;;;19.55;15.07;;;7.90;93.50;;;;;;5117383;27;20433;-88
2022/12/22 16:29:42;;;;;;;18.75;15.20;;;7.80;93.50;;;;;;5100025;27;20410;-90
2022/12/22 16:32:26;;;;;;;18.42;14.77;;;7.80;93.50;;;;;;5110210;27;20409;-88
2022/12/22 16:34:53;;;;;;;19.00;15.00;;;7.80;93.50;;;;;;5114355;27;20405;-89
2022/12/22 16:37:18;;;;;;;18.50;15.15;;;7.80;93.30;;;;;;5129325;27;20393;-88